Time;durP1;ratioP1;P1;durP2;ratioP2;P2;SDS_P1;SDS_P2;PMS_P1;PMS_P2;Temp;Humidity;BMP_temperature;BMP_pressure;BME280_temperature;BME280_humidity;BME280_pressure;Samples;Min_cycle;Max_cycle;Signal;HPM_P1;HPM_P2
2023/06/28 00:01:48;;;;;;;16.52;14.77;;;;;;;;;;5066018;28;20032;-76
2023/06/28 00:04:13;;;;;;;15.88;14.48;;;;;;;;;;5068197;28;20055;-77
2023/06/28 00:06:39;;;;;;;15.52;14.13;;;;;;;;;;5067724;28;20031;-76
2023/06/28 00:09:05;;;;;;;17.20;15.27;;;;;;;;;;5067969;28;20023;-77
2023/06/28 00:11:30;;;;;;;16.30;14.65;;;;;;;;;;5068038;28;20024;-76
2023/06/28 00:13:55;;;;;;;14.52;13.40;;;;;;;;;;5067196;28;20413;-76
2023/06/28 00:16:21;;;;;;;14.70;13.50;;;;;;;;;;5067331;28;20020;-77
2023/06/28 00:18:47;;;;;;;16.05;13.90;;;;;;;;;;5068244;28;20121;-76
2023/06/28 00:21:13;;;;;;;16.00;14.43;;;;;;;;;;5066794;28;20460;-75
2023/06/28 00:23:39;;;;;;;16.40;15.05;;;;;;;;;;5068226;28;20031;-76
2023/06/28 00:26:04;;;;;;;16.15;14.65;;;;;;;;;;5073012;28;20028;-75
2023/06/28 00:28:29;;;;;;;16.10;14.68;;;;;;;;;;5081602;28;20095;-76
2023/06/28 00:30:55;;;;;;;15.27;14.07;;;;;;;;;;5080287;28;20497;-77
2023/06/28 00:33:20;;;;;;;15.02;13.60;;;;;;;;;;5075382;28;20473;-76
2023/06/28 00:35:48;;;;;;;15.63;14.30;;;;;;;;;;5072136;28;20024;-75
2023/06/28 00:38:14;;;;;;;16.38;14.48;;;;;;;;;;5078865;28;20040;-76
2023/06/28 00:40:39;;;;;;;15.20;13.90;;;;;;;;;;5069511;28;20352;-76
2023/06/28 00:43:04;;;;;;;15.93;14.48;;;;;;;;;;5079273;28;20028;-76
2023/06/28 00:45:30;;;;;;;17.25;15.48;;;;;;;;;;5079278;28;20431;-77
2023/06/28 00:47:55;;;;;;;15.90;14.60;;;;;;;;;;5069311;28;20513;-75
2023/06/28 00:50:21;;;;;;;16.73;15.00;;;;;;;;;;5080486;28;20038;-77
2023/06/28 00:52:46;;;;;;;15.55;14.15;;;;;;;;;;5079430;28;20035;-77
2023/06/28 00:55:12;;;;;;;15.60;14.20;;;;;;;;;;5070702;28;20020;-75
2023/06/28 00:57:38;;;;;;;15.00;13.60;;;;;;;;;;5075235;28;20036;-75
2023/06/28 01:00:08;;;;;;;15.98;14.48;;;;;;;;;;5070907;28;20033;-76
2023/06/28 01:02:33;;;;;;;15.57;14.25;;;;;;;;;;5078823;28;20089;-75
2023/06/28 01:04:58;;;;;;;15.93;14.25;;;;;;;;;;5068646;28;20028;-76
2023/06/28 01:07:28;;;;;;;16.48;14.50;;;;;;;;;;5074173;28;20035;-76
2023/06/28 01:09:56;;;;;;;16.13;14.60;;;;;;;;;;5067220;28;20024;-75
2023/06/28 01:12:21;;;;;;;15.60;14.18;;;;;;;;;;5076096;28;20055;-76
2023/06/28 01:14:46;;;;;;;16.38;14.65;;;;;;;;;;5069469;28;20442;-75
2023/06/28 01:17:12;;;;;;;16.17;14.50;;;;;;;;;;5077620;28;20032;-77
2023/06/28 01:19:37;;;;;;;18.50;16.63;;;;;;;;;;5074794;28;20027;-76
2023/06/28 01:22:05;;;;;;;16.40;14.77;;;;;;;;;;5079743;28;20451;-75
2023/06/28 01:24:31;;;;;;;16.98;15.35;;;;;;;;;;5071268;28;20097;-75
2023/06/28 01:26:58;;;;;;;18.33;16.73;;;;;;;;;;5076231;28;20074;-75
2023/06/28 01:29:24;;;;;;;17.42;15.68;;;;;;;;;;5074726;28;20020;-76
2023/06/28 01:31:50;;;;;;;16.15;14.55;;;;;;;;;;5071767;28;20351;-75
2023/06/28 01:34:16;;;;;;;16.67;15.23;;;;;;;;;;5076083;28;20016;-76
2023/06/28 01:36:41;;;;;;;17.38;15.77;;;;;;;;;;5073089;28;20032;-76
2023/06/28 01:39:07;;;;;;;17.48;13.85;;;;;;;;;;5072600;28;20494;-77
2023/06/28 01:41:32;;;;;;;13.52;12.20;;;;;;;;;;5072263;28;20784;-76
2023/06/28 01:43:57;;;;;;;13.90;12.60;;;;;;;;;;5081562;28;20024;-77
2023/06/28 01:46:23;;;;;;;16.63;12.27;;;;;;;;;;5078887;28;20024;-74
2023/06/28 01:48:48;;;;;;;15.25;13.85;;;;;;;;;;5080486;28;20106;-78
2023/06/28 01:51:14;;;;;;;16.30;14.80;;;;;;;;;;5080055;28;20396;-78
2023/06/28 01:53:39;;;;;;;15.48;13.88;;;;;;;;;;5072225;28;20103;-76
2023/06/28 01:56:04;;;;;;;17.20;14.45;;;;;;;;;;5069337;28;20039;-77
2023/06/28 01:58:30;;;;;;;14.82;12.43;;;;;;;;;;5073754;28;20036;-78
2023/06/28 02:00:55;;;;;;;13.18;11.88;;;;;;;;;;5066983;28;20348;-76
2023/06/28 02:03:20;;;;;;;12.27;10.98;;;;;;;;;;5074650;28;20343;-76
2023/06/28 02:05:46;;;;;;;12.93;9.55;;;;;;;;;;5078789;28;20028;-80
2023/06/28 02:08:11;;;;;;;11.25;8.52;;;;;;;;;;5076680;28;20028;-78
2023/06/28 02:10:36;;;;;;;9.48;8.23;;;;;;;;;;5069319;28;20032;-76
2023/06/28 02:13:02;;;;;;;12.48;8.38;;;;;;;;;;5069718;28;20036;-77
2023/06/28 02:15:27;;;;;;;11.25;8.35;;;;;;;;;;5073171;28;20074;-77
2023/06/28 02:17:58;;;;;;;9.70;7.93;;;;;;;;;;5077630;28;20043;-77
2023/06/28 02:20:23;;;;;;;9.95;7.88;;;;;;;;;;5079585;28;20031;-77
2023/06/28 02:22:48;;;;;;;8.05;7.10;;;;;;;;;;5081810;28;20685;-79
2023/06/28 02:25:14;;;;;;;8.70;7.72;;;;;;;;;;5073057;28;20070;-79
2023/06/28 02:27:40;;;;;;;7.65;6.43;;;;;;;;;;5080049;28;20063;-76
2023/06/28 02:30:06;;;;;;;7.55;6.75;;;;;;;;;;5069853;28;20024;-81
2023/06/28 02:32:31;;;;;;;9.52;6.93;;;;;;;;;;5073165;28;20400;-78
2023/06/28 02:34:57;;;;;;;10.02;6.30;;;;;;;;;;5070447;28;20402;-77
2023/06/28 02:37:23;;;;;;;7.93;6.43;;;;;;;;;;5082185;28;20028;-81
2023/06/28 02:39:48;;;;;;;6.97;6.38;;;;;;;;;;5073770;28;20453;-75
2023/06/28 02:42:14;;;;;;;8.32;6.68;;;;;;;;;;5080258;28;20025;-78
2023/06/28 02:44:39;;;;;;;8.50;6.47;;;;;;;;;;5080798;28;20024;-79
2023/06/28 02:47:04;;;;;;;10.10;6.25;;;;;;;;;;5070856;28;20123;-77
2023/06/28 02:49:30;;;;;;;7.63;5.10;;;;;;;;;;5072598;28;20032;-79
2023/06/28 02:51:56;;;;;;;6.93;6.03;;;;;;;;;;5080889;28;20040;-77
2023/06/28 02:54:22;;;;;;;5.65;5.07;;;;;;;;;;5073929;28;20030;-75
2023/06/28 03:07:30;;;;;;;5.95;4.82;;;;;;;;;;5151092;27;20863;-73
2023/06/28 03:09:55;;;;;;;6.20;5.05;;;;;;;;;;5150235;27;20035;-73
2023/06/28 03:12:21;;;;;;;8.43;4.57;;;;;;;;;;5147429;27;20062;-73
2023/06/28 03:14:46;;;;;;;7.00;5.10;;;;;;;;;;5131587;27;20322;-74
2023/06/28 03:17:11;;;;;;;8.05;5.10;;;;;;;;;;5138425;27;20129;-74
2023/06/28 03:19:37;;;;;;;6.57;4.50;;;;;;;;;;5131397;27;20024;-74
2023/06/28 03:22:03;;;;;;;6.38;4.55;;;;;;;;;;5131341;27;20086;-74
2023/06/28 03:24:28;;;;;;;5.35;4.75;;;;;;;;;;5144468;27;20015;-74
2023/06/28 03:26:53;;;;;;;5.65;4.20;;;;;;;;;;5149885;27;20038;-74
2023/06/28 03:29:19;;;;;;;5.43;4.50;;;;;;;;;;5150181;27;20261;-74
2023/06/28 03:31:44;;;;;;;8.45;4.85;;;;;;;;;;5149774;27;20038;-74
2023/06/28 03:34:09;;;;;;;4.93;4.43;;;;;;;;;;5136501;27;20026;-74
2023/06/28 03:36:35;;;;;;;7.80;4.85;;;;;;;;;;5131206;27;20502;-73
2023/06/28 03:39:00;;;;;;;7.22;4.70;;;;;;;;;;5130884;27;20026;-73
2023/06/28 03:41:27;;;;;;;7.57;4.50;;;;;;;;;;5131034;27;20030;-73
2023/06/28 03:43:52;;;;;;;4.85;3.92;;;;;;;;;;5130805;27;20110;-74
2023/06/28 03:46:17;;;;;;;9.73;4.93;;;;;;;;;;5131124;27;20107;-74
2023/06/28 03:48:43;;;;;;;7.53;4.70;;;;;;;;;;5130778;27;20156;-73
2023/06/28 03:51:08;;;;;;;6.45;4.72;;;;;;;;;;5131009;27;20034;-74
2023/06/28 03:53:34;;;;;;;10.90;4.65;;;;;;;;;;5143711;27;20111;-73
2023/06/28 03:55:59;;;;;;;4.82;4.18;;;;;;;;;;5149198;27;20412;-74
2023/06/28 03:58:24;;;;;;;4.68;4.18;;;;;;;;;;5149245;27;20452;-73
2023/06/28 04:00:50;;;;;;;5.72;4.40;;;;;;;;;;5143368;27;20065;-73
2023/06/28 04:03:18;;;;;;;5.18;4.38;;;;;;;;;;5133974;27;20168;-74
2023/06/28 04:05:43;;;;;;;7.57;4.53;;;;;;;;;;5133098;27;20047;-73
2023/06/28 04:08:09;;;;;;;6.43;4.72;;;;;;;;;;5104878;27;20035;-74
2023/06/28 04:10:34;;;;;;;9.63;4.60;;;;;;;;;;5084884;28;20026;-73
2023/06/28 04:13:00;;;;;;;5.55;4.65;;;;;;;;;;5082214;28;20028;-73
2023/06/28 04:15:25;;;;;;;5.13;4.18;;;;;;;;;;5084642;28;20038;-73
2023/06/28 04:17:50;;;;;;;5.50;4.45;;;;;;;;;;5085362;28;20042;-74
2023/06/28 04:20:16;;;;;;;6.38;4.53;;;;;;;;;;5087919;27;20024;-73
2023/06/28 04:22:41;;;;;;;7.13;4.25;;;;;;;;;;5100486;28;20042;-73
2023/06/28 04:25:06;;;;;;;8.48;4.78;;;;;;;;;;5091973;28;20089;-73
2023/06/28 04:27:32;;;;;;;5.50;4.20;;;;;;;;;;5101681;28;20039;-73
2023/06/28 04:29:57;;;;;;;7.53;4.53;;;;;;;;;;5101683;28;20994;-74
2023/06/28 04:32:24;;;;;;;5.75;4.05;;;;;;;;;;5100127;28;20338;-74
2023/06/28 04:34:52;;;;;;;8.68;4.13;;;;;;;;;;5100268;28;20042;-73
2023/06/28 04:37:18;;;;;;;4.65;4.05;;;;;;;;;;5101995;27;20077;-73
2023/06/28 04:39:43;;;;;;;9.25;4.68;;;;;;;;;;5092325;28;20036;-74
2023/06/28 04:42:09;;;;;;;4.43;4.03;;;;;;;;;;5095457;28;20104;-74
2023/06/28 04:44:36;;;;;;;4.53;3.95;;;;;;;;;;5089710;28;20050;-74
2023/06/28 04:47:02;;;;;;;7.43;4.45;;;;;;;;;;5091663;28;20027;-74
2023/06/28 04:49:27;;;;;;;4.38;3.90;;;;;;;;;;5100234;28;20027;-75
2023/06/28 04:51:54;;;;;;;4.53;3.90;;;;;;;;;;5101255;27;20028;-74
2023/06/28 04:54:19;;;;;;;4.63;4.00;;;;;;;;;;5099625;28;20030;-75
2023/06/28 04:56:45;;;;;;;8.45;4.13;;;;;;;;;;5101727;27;20341;-73
2023/06/28 04:59:10;;;;;;;9.70;6.07;;;;;;;;;;5099454;27;20092;-73
2023/06/28 05:01:37;;;;;;;4.88;4.15;;;;;;;;;;5097053;28;20337;-71
2023/06/28 05:04:03;;;;;;;5.10;3.65;;;;;;;;;;5093746;28;20031;-73
2023/06/28 05:06:29;;;;;;;8.65;4.70;;;;;;;;;;5089182;28;20058;-73
2023/06/28 05:08:54;;;;;;;6.13;4.38;;;;;;;;;;5089836;28;20358;-73
2023/06/28 05:11:20;;;;;;;6.93;3.75;;;;;;;;;;5088541;28;20361;-74
2023/06/28 05:13:45;;;;;;;4.43;3.83;;;;;;;;;;5095930;28;20045;-73
2023/06/28 05:16:10;;;;;;;4.93;3.40;;;;;;;;;;5099542;28;20448;-73
2023/06/28 05:18:36;;;;;;;6.20;3.97;;;;;;;;;;5098677;28;20039;-73
2023/06/28 05:21:01;;;;;;;4.30;3.85;;;;;;;;;;5099975;28;20028;-73
2023/06/28 05:23:27;;;;;;;4.55;3.50;;;;;;;;;;5098091;27;20011;-72
2023/06/28 05:25:52;;;;;;;6.28;3.72;;;;;;;;;;5100705;28;20031;-73
2023/06/28 05:28:17;;;;;;;5.38;3.53;;;;;;;;;;5099589;28;20024;-73
2023/06/28 05:30:44;;;;;;;4.93;3.92;;;;;;;;;;5100245;28;20023;-73
2023/06/28 05:33:10;;;;;;;10.40;4.53;;;;;;;;;;5099546;28;20027;-73
2023/06/28 05:35:36;;;;;;;6.05;3.80;;;;;;;;;;5098565;28;20024;-73
2023/06/28 05:38:02;;;;;;;7.43;4.13;;;;;;;;;;5101375;28;20122;-75
2023/06/28 05:40:28;;;;;;;5.80;3.83;;;;;;;;;;5098882;28;20378;-76
2023/06/28 05:42:54;;;;;;;4.65;3.90;;;;;;;;;;5100214;28;20089;-76
2023/06/28 05:45:20;;;;;;;5.80;4.78;;;;;;;;;;5100426;28;20230;-76
2023/06/28 05:47:45;;;;;;;4.40;3.90;;;;;;;;;;5101447;28;20110;-76
2023/06/28 05:50:11;;;;;;;6.57;3.78;;;;;;;;;;5100938;28;20164;-76
2023/06/28 05:52:36;;;;;;;5.22;3.15;;;;;;;;;;5100839;28;20066;-74
2023/06/28 05:55:02;;;;;;;4.03;3.63;;;;;;;;;;5100850;27;20034;-75
2023/06/28 05:57:27;;;;;;;4.35;3.45;;;;;;;;;;5095099;28;20035;-75
2023/06/28 05:59:52;;;;;;;3.55;3.22;;;;;;;;;;5087759;28;20385;-75
2023/06/28 06:02:18;;;;;;;4.30;3.58;;;;;;;;;;5088136;28;20138;-76
2023/06/28 06:04:43;;;;;;;6.25;4.40;;;;;;;;;;5088895;28;20046;-76
2023/06/28 06:07:08;;;;;;;6.93;5.25;;;;;;;;;;5097397;28;20058;-76
2023/06/28 06:09:34;;;;;;;6.75;4.00;;;;;;;;;;5100760;28;20448;-75
2023/06/28 06:11:59;;;;;;;6.03;3.58;;;;;;;;;;5101679;28;20034;-76
2023/06/28 06:14:24;;;;;;;5.32;3.65;;;;;;;;;;5100180;27;20024;-77
2023/06/28 06:16:50;;;;;;;5.20;3.80;;;;;;;;;;5098294;28;20031;-75
2023/06/28 06:19:15;;;;;;;6.65;4.10;;;;;;;;;;5099391;28;20407;-76
2023/06/28 06:21:40;;;;;;;5.43;3.75;;;;;;;;;;5098925;28;20078;-78
2023/06/28 06:24:08;;;;;;;5.25;3.90;;;;;;;;;;5100155;28;20032;-77
2023/06/28 06:26:35;;;;;;;4.85;3.72;;;;;;;;;;5098347;28;20042;-76
2023/06/28 06:29:00;;;;;;;4.85;3.72;;;;;;;;;;5100174;28;20091;-76
2023/06/28 06:31:25;;;;;;;3.78;3.42;;;;;;;;;;5099050;28;20032;-75
2023/06/28 06:33:51;;;;;;;5.10;3.85;;;;;;;;;;5099908;28;20019;-77
2023/06/28 06:36:16;;;;;;;3.70;3.40;;;;;;;;;;5097892;28;20120;-76
2023/06/28 06:38:42;;;;;;;5.90;3.60;;;;;;;;;;5099968;28;20547;-77
2023/06/28 06:41:07;;;;;;;3.90;3.60;;;;;;;;;;5099382;28;20501;-77
2023/06/28 06:43:33;;;;;;;5.45;3.67;;;;;;;;;;5098983;28;20429;-75
2023/06/28 06:45:58;;;;;;;5.10;3.20;;;;;;;;;;5098246;28;20027;-75
2023/06/28 06:48:24;;;;;;;4.78;3.15;;;;;;;;;;5099831;28;20114;-75
2023/06/28 06:50:49;;;;;;;3.92;3.47;;;;;;;;;;5100432;28;21473;-76
2023/06/28 06:53:14;;;;;;;6.53;3.75;;;;;;;;;;5101260;28;20031;-76
2023/06/28 06:55:40;;;;;;;6.10;4.55;;;;;;;;;;5100272;28;20134;-75
2023/06/28 06:58:05;;;;;;;8.23;4.82;;;;;;;;;;5100137;28;20028;-75
2023/06/28 07:00:30;;;;;;;4.25;3.83;;;;;;;;;;5099190;28;20024;-75
2023/06/28 07:02:56;;;;;;;6.30;4.20;;;;;;;;;;5098362;28;20023;-77
2023/06/28 07:05:21;;;;;;;5.32;4.38;;;;;;;;;;5098886;28;20353;-77
2023/06/28 07:07:46;;;;;;;5.75;5.05;;;;;;;;;;5097624;28;20351;-76
2023/06/28 07:10:12;;;;;;;8.45;4.72;;;;;;;;;;5100909;28;20148;-77
2023/06/28 07:12:37;;;;;;;8.88;7.05;;;;;;;;;;5098859;28;20035;-77
2023/06/28 07:15:03;;;;;;;6.82;6.22;;;;;;;;;;5100241;28;20015;-76
2023/06/28 07:17:28;;;;;;;8.52;5.32;;;;;;;;;;5099697;28;20468;-75
2023/06/28 07:19:53;;;;;;;6.35;5.82;;;;;;;;;;5100052;28;20043;-77
2023/06/28 07:22:19;;;;;;;5.63;5.03;;;;;;;;;;5088841;28;20031;-76
2023/06/28 07:24:44;;;;;;;4.18;3.80;;;;;;;;;;5097043;28;20028;-76
2023/06/28 07:27:09;;;;;;;3.92;3.38;;;;;;;;;;5100224;28;20020;-74
2023/06/28 07:29:35;;;;;;;4.18;2.90;;;;;;;;;;5093677;28;20024;-76
2023/06/28 07:32:01;;;;;;;3.65;3.25;;;;;;;;;;5088231;28;20028;-76
2023/06/28 07:34:26;;;;;;;3.42;2.92;;;;;;;;;;5087163;28;20035;-77
2023/06/28 07:36:51;;;;;;;2.90;2.70;;;;;;;;;;5086798;28;20031;-76
2023/06/28 07:39:17;;;;;;;2.83;2.63;;;;;;;;;;5096293;28;20449;-75
2023/06/28 07:41:42;;;;;;;2.90;2.60;;;;;;;;;;5097760;28;20153;-75
2023/06/28 07:44:07;;;;;;;2.72;2.53;;;;;;;;;;5103864;28;20030;-76
2023/06/28 07:46:33;;;;;;;3.97;2.72;;;;;;;;;;5102780;28;20032;-76
2023/06/28 07:48:59;;;;;;;2.90;2.60;;;;;;;;;;5103390;28;20455;-76
2023/06/28 07:51:25;;;;;;;6.20;2.90;;;;;;;;;;5098622;28;20596;-77
2023/06/28 07:53:50;;;;;;;3.40;3.00;;;;;;;;;;5090995;28;20157;-76
2023/06/28 07:56:16;;;;;;;3.72;2.78;;;;;;;;;;5099916;28;20326;-76
2023/06/28 07:58:41;;;;;;;2.65;2.45;;;;;;;;;;5099708;28;20636;-77
2023/06/28 08:01:07;;;;;;;5.28;2.95;;;;;;;;;;5103606;28;21169;-76
2023/06/28 08:03:32;;;;;;;2.97;2.78;;;;;;;;;;5103658;28;20023;-77
2023/06/28 08:05:57;;;;;;;3.28;2.97;;;;;;;;;;5103677;28;20048;-75
2023/06/28 08:08:23;;;;;;;3.15;2.85;;;;;;;;;;5101445;28;20436;-78
2023/06/28 08:10:48;;;;;;;3.30;2.80;;;;;;;;;;5104437;27;20020;-77
2023/06/28 08:13:14;;;;;;;3.08;2.88;;;;;;;;;;5102776;28;20032;-76
2023/06/28 08:15:40;;;;;;;3.30;2.72;;;;;;;;;;5103378;28;20082;-76
2023/06/28 08:18:08;;;;;;;3.65;2.90;;;;;;;;;;5102522;28;20060;-77
2023/06/28 08:20:33;;;;;;;2.60;2.35;;;;;;;;;;5102241;28;20031;-77
2023/06/28 08:22:59;;;;;;;3.25;2.67;;;;;;;;;;5103793;28;20028;-78
2023/06/28 08:25:24;;;;;;;2.95;2.60;;;;;;;;;;5103680;28;20028;-75
2023/06/28 08:27:49;;;;;;;3.00;2.63;;;;;;;;;;5103585;28;20024;-77
2023/06/28 08:30:15;;;;;;;3.28;2.40;;;;;;;;;;5102782;27;20062;-76
2023/06/28 08:32:40;;;;;;;4.65;2.50;;;;;;;;;;5104227;28;20031;-76
2023/06/28 08:35:06;;;;;;;3.25;2.08;;;;;;;;;;5101622;28;20457;-77
2023/06/28 08:37:34;;;;;;;2.88;2.60;;;;;;;;;;5102813;28;20036;-77
2023/06/28 08:39:59;;;;;;;2.92;2.60;;;;;;;;;;5103191;27;20038;-77
2023/06/28 08:42:25;;;;;;;2.70;2.50;;;;;;;;;;5103181;28;20027;-77
2023/06/28 08:44:51;;;;;;;3.60;3.00;;;;;;;;;;5102210;28;20114;-77
2023/06/28 08:47:17;;;;;;;3.05;2.75;;;;;;;;;;5102489;28;20460;-76
2023/06/28 08:49:42;;;;;;;3.40;3.10;;;;;;;;;;5103182;28;20023;-76
2023/06/28 08:52:08;;;;;;;3.10;2.70;;;;;;;;;;5102017;28;20517;-76
2023/06/28 08:54:34;;;;;;;3.15;2.85;;;;;;;;;;5101876;28;20344;-77
2023/06/28 08:57:00;;;;;;;4.53;2.70;;;;;;;;;;5100353;28;20028;-78
2023/06/28 08:59:26;;;;;;;3.30;3.00;;;;;;;;;;5102599;28;20027;-78
2023/06/28 09:01:55;;;;;;;3.88;2.85;;;;;;;;;;5101540;28;20020;-77
2023/06/28 09:04:24;;;;;;;2.67;2.47;;;;;;;;;;5101618;28;20406;-78
2023/06/28 09:06:50;;;;;;;3.85;3.20;;;;;;;;;;5101569;28;20062;-76
2023/06/28 09:09:17;;;;;;;3.22;2.92;;;;;;;;;;5102364;28;20442;-76
2023/06/28 09:11:42;;;;;;;2.83;2.60;;;;;;;;;;5103031;28;20111;-77
2023/06/28 09:14:08;;;;;;;3.72;3.20;;;;;;;;;;5101713;28;20098;-78
2023/06/28 09:16:34;;;;;;;5.38;3.13;;;;;;;;;;5101565;28;20059;-76
2023/06/28 09:18:59;;;;;;;3.58;3.20;;;;;;;;;;5101514;28;20027;-78
2023/06/28 09:21:25;;;;;;;3.35;3.03;;;;;;;;;;5103033;28;20447;-77
2023/06/28 09:23:51;;;;;;;3.22;2.88;;;;;;;;;;5102268;28;20096;-77
2023/06/28 09:26:16;;;;;;;5.75;3.05;;;;;;;;;;5101519;28;20027;-76
2023/06/28 09:28:42;;;;;;;3.97;3.05;;;;;;;;;;5101144;28;20023;-77
2023/06/28 09:31:08;;;;;;;6.18;3.10;;;;;;;;;;5102315;27;20020;-77
2023/06/28 09:33:33;;;;;;;3.75;3.45;;;;;;;;;;5099192;28;20034;-77
2023/06/28 09:36:00;;;;;;;4.03;3.50;;;;;;;;;;5102676;27;20035;-77
2023/06/28 09:38:26;;;;;;;4.63;3.15;;;;;;;;;;5101325;28;20054;-77
2023/06/28 09:40:55;;;;;;;3.50;3.17;;;;;;;;;;5102126;28;20059;-78
2023/06/28 09:43:21;;;;;;;3.78;3.22;;;;;;;;;;5101347;28;20128;-77
2023/06/28 09:45:47;;;;;;;6.25;3.13;;;;;;;;;;5101163;27;20145;-77
2023/06/28 09:48:12;;;;;;;4.35;3.30;;;;;;;;;;5100226;28;20110;-76
2023/06/28 09:50:42;;;;;;;4.38;2.97;;;;;;;;;;5101870;28;20035;-77
2023/06/28 09:53:11;;;;;;;3.42;3.13;;;;;;;;;;5101066;28;20161;-77
2023/06/28 09:55:38;;;;;;;3.70;3.40;;;;;;;;;;5101959;28;20451;-77
2023/06/28 09:58:03;;;;;;;3.90;3.50;;;;;;;;;;5101926;28;20140;-78
2023/06/28 10:00:31;;;;;;;4.50;3.88;;;;;;;;;;5100319;28;20670;-76
2023/06/28 10:02:58;;;;;;;4.45;3.85;;;;;;;;;;5101087;28;20100;-78
2023/06/28 10:05:23;;;;;;;4.75;3.75;;;;;;;;;;5100022;28;20039;-77
2023/06/28 10:07:50;;;;;;;4.90;4.40;;;;;;;;;;5100314;28;20046;-76
2023/06/28 10:10:16;;;;;;;4.78;4.38;;;;;;;;;;5098690;28;20027;-76
2023/06/28 10:12:41;;;;;;;4.45;3.72;;;;;;;;;;5101521;27;20075;-76
2023/06/28 10:15:10;;;;;;;4.97;4.47;;;;;;;;;;5099742;28;20027;-78
2023/06/28 10:17:35;;;;;;;5.95;4.10;;;;;;;;;;5101302;28;20031;-77
2023/06/28 10:20:02;;;;;;;5.18;4.30;;;;;;;;;;5101836;28;20039;-77
2023/06/28 10:22:29;;;;;;;4.93;4.43;;;;;;;;;;5100787;27;20027;-77
2023/06/28 10:24:55;;;;;;;4.35;4.05;;;;;;;;;;5097137;28;20825;-78
2023/06/28 10:27:20;;;;;;;4.60;3.40;;;;;;;;;;5088838;28;20034;-77
2023/06/28 10:29:50;;;;;;;4.28;3.40;;;;;;;;;;5089044;28;20031;-76
2023/06/28 10:32:16;;;;;;;4.05;3.65;;;;;;;;;;5088340;28;20023;-79
2023/06/28 10:34:41;;;;;;;4.45;4.05;;;;;;;;;;5088377;27;20265;-79
2023/06/28 10:37:07;;;;;;;5.35;4.82;;;;;;;;;;5088649;28;20090;-77
2023/06/28 10:39:35;;;;;;;5.03;4.63;;;;;;;;;;5088167;28;20119;-77
2023/06/28 10:42:00;;;;;;;4.95;4.55;;;;;;;;;;5088334;28;20056;-77
2023/06/28 10:44:25;;;;;;;5.35;4.68;;;;;;;;;;5088496;28;20043;-77
2023/06/28 10:47:07;;;;;;;5.10;4.68;;;;;;;;;;5088145;28;20096;-77
2023/06/28 10:49:35;;;;;;;5.68;4.70;;;;;;;;;;5088160;28;20530;-78
2023/06/28 10:52:00;;;;;;;6.30;4.50;;;;;;;;;;5087673;28;20054;-78
2023/06/28 10:54:26;;;;;;;5.13;4.45;;;;;;;;;;5088695;28;20032;-78
2023/06/28 10:56:51;;;;;;;4.65;4.13;;;;;;;;;;5087237;28;20027;-76
2023/06/28 10:59:18;;;;;;;5.65;4.50;;;;;;;;;;5086711;28;20032;-76
2023/06/28 11:01:49;;;;;;;5.72;5.25;;;;;;;;;;5088213;28;20031;-79
2023/06/28 11:04:14;;;;;;;5.43;4.95;;;;;;;;;;5088487;28;20038;-77
2023/06/28 11:06:40;;;;;;;5.10;4.60;;;;;;;;;;5086666;28;20043;-77
2023/06/28 11:09:13;;;;;;;5.28;4.78;;;;;;;;;;5087594;28;20062;-78
2023/06/28 11:11:41;;;;;;;4.20;3.88;;;;;;;;;;5098472;28;20020;-80
2023/06/28 11:14:25;;;;;;;4.45;4.05;;;;;;;;;;5086862;28;20016;-77
2023/06/28 11:16:50;;;;;;;4.40;4.05;;;;;;;;;;5087773;28;20327;-78
2023/06/28 11:19:18;;;;;;;4.82;4.18;;;;;;;;;;5087214;28;20025;-77
2023/06/28 11:21:46;;;;;;;8.85;4.20;;;;;;;;;;5092189;27;20020;-79
2023/06/28 11:24:12;;;;;;;4.50;4.07;;;;;;;;;;5091485;28;20058;-78
2023/06/28 11:26:37;;;;;;;5.18;4.68;;;;;;;;;;5090789;28;20066;-77
2023/06/28 11:29:16;;;;;;;4.32;3.92;;;;;;;;;;5092049;28;20023;-79
2023/06/28 11:31:46;;;;;;;5.80;5.20;;;;;;;;;;5091045;28;20454;-78
2023/06/28 11:34:13;;;;;;;7.45;5.95;;;;;;;;;;5097439;28;20035;-79
2023/06/28 11:36:39;;;;;;;5.32;4.82;;;;;;;;;;5094012;28;20027;-78
2023/06/28 11:39:06;;;;;;;4.53;4.13;;;;;;;;;;5098993;28;20351;-79
2023/06/28 11:41:35;;;;;;;5.07;4.57;;;;;;;;;;5105620;28;20157;-79
2023/06/28 11:44:04;;;;;;;5.15;4.47;;;;;;;;;;5103258;28;20019;-79
2023/06/28 11:46:32;;;;;;;5.95;4.43;;;;;;;;;;5102632;28;20126;-78
2023/06/28 11:48:59;;;;;;;5.95;5.35;;;;;;;;;;5104573;28;20446;-78
2023/06/28 11:51:25;;;;;;;6.28;5.28;;;;;;;;;;5104364;27;20008;-78
2023/06/28 11:53:50;;;;;;;6.32;5.72;;;;;;;;;;5103116;28;20031;-77
2023/06/28 11:56:16;;;;;;;6.15;5.55;;;;;;;;;;5093577;27;20343;-78
2023/06/28 11:58:41;;;;;;;6.82;5.85;;;;;;;;;;5096980;28;20094;-79
2023/06/28 12:01:18;;;;;;;7.93;7.13;;;;;;;;;;5105089;28;20716;-79
2023/06/28 12:03:43;;;;;;;10.13;9.18;;;;;;;;;;5104522;28;20034;-79
2023/06/28 12:06:10;;;;;;;8.90;6.80;;;;;;;;;;5096493;28;20039;-79
2023/06/28 12:08:36;;;;;;;6.90;5.57;;;;;;;;;;5091776;28;20031;-79
2023/06/28 12:11:07;;;;;;;5.65;4.93;;;;;;;;;;5090633;28;20401;-77
2023/06/28 12:13:32;;;;;;;5.07;4.57;;;;;;;;;;5090700;28;20319;-78
2023/06/28 12:15:58;;;;;;;6.55;4.50;;;;;;;;;;5102008;27;20160;-77
2023/06/28 12:18:43;;;;;;;4.50;4.05;;;;;;;;;;5099828;28;20054;-77
2023/06/28 12:21:21;;;;;;;5.93;4.80;;;;;;;;;;5090313;28;20055;-77
2023/06/28 12:23:46;;;;;;;4.78;4.38;;;;;;;;;;5095759;28;20047;-78
2023/06/28 12:26:12;;;;;;;4.50;4.10;;;;;;;;;;5102468;28;20085;-75
2023/06/28 12:28:37;;;;;;;4.50;4.10;;;;;;;;;;5101906;28;20023;-75
2023/06/28 12:31:02;;;;;;;4.68;4.10;;;;;;;;;;5103281;28;20489;-76
2023/06/28 12:33:28;;;;;;;7.72;4.55;;;;;;;;;;5101507;28;20427;-77
2023/06/28 12:35:55;;;;;;;4.10;3.80;;;;;;;;;;5103353;28;20032;-77
2023/06/28 12:38:20;;;;;;;4.63;4.00;;;;;;;;;;5103620;28;20031;-77
2023/06/28 12:40:46;;;;;;;5.05;4.65;;;;;;;;;;5102650;28;20019;-76
2023/06/28 12:43:12;;;;;;;9.10;4.47;;;;;;;;;;5102530;28;20031;-75
2023/06/28 12:46:04;;;;;;;5.35;4.47;;;;;;;;;;5102830;27;20047;-75
2023/06/28 12:48:30;;;;;;;7.68;4.20;;;;;;;;;;5099598;28;20038;-76
2023/06/28 12:50:55;;;;;;;5.07;4.25;;;;;;;;;;5102544;28;20023;-76
2023/06/28 12:53:21;;;;;;;6.80;3.60;;;;;;;;;;5102463;28;20371;-77
2023/06/28 12:55:46;;;;;;;3.58;3.10;;;;;;;;;;5103607;28;20034;-76
2023/06/28 12:58:12;;;;;;;6.57;3.80;;;;;;;;;;5093279;28;20456;-75
2023/06/28 13:00:38;;;;;;;7.78;4.90;;;;;;;;;;5069246;28;20032;-76
2023/06/28 13:03:09;;;;;;;5.03;4.35;;;;;;;;;;5090614;28;20371;-75
2023/06/28 13:05:35;;;;;;;6.05;4.30;;;;;;;;;;5088592;28;20035;-77
2023/06/28 13:08:01;;;;;;;4.85;4.10;;;;;;;;;;5089273;28;20037;-77
2023/06/28 13:10:26;;;;;;;4.28;3.88;;;;;;;;;;5089711;28;20074;-77
2023/06/28 13:12:52;;;;;;;6.40;4.03;;;;;;;;;;5088576;28;20052;-77
2023/06/28 13:15:17;;;;;;;4.38;3.97;;;;;;;;;;5089826;28;20106;-77
2023/06/28 13:17:42;;;;;;;4.68;4.28;;;;;;;;;;5089567;28;20347;-76
2023/06/28 13:20:08;;;;;;;5.10;4.00;;;;;;;;;;5088650;28;20019;-76
2023/06/28 13:22:33;;;;;;;4.45;4.00;;;;;;;;;;5087947;28;20034;-80
2023/06/28 13:24:59;;;;;;;5.18;4.65;;;;;;;;;;5095830;28;20023;-78
2023/06/28 13:27:24;;;;;;;4.68;4.28;;;;;;;;;;5095874;28;20031;-77
2023/06/28 13:29:49;;;;;;;7.03;4.25;;;;;;;;;;5103157;27;20035;-79
2023/06/28 13:32:15;;;;;;;4.22;3.67;;;;;;;;;;5103451;28;20038;-77
2023/06/28 13:34:40;;;;;;;4.18;3.85;;;;;;;;;;5092430;28;20024;-76
2023/06/28 13:37:05;;;;;;;7.97;3.90;;;;;;;;;;5095673;28;20020;-77
2023/06/28 13:39:31;;;;;;;4.28;3.88;;;;;;;;;;5096376;28;20032;-78
2023/06/28 13:41:56;;;;;;;4.70;4.30;;;;;;;;;;5089714;28;20023;-80
2023/06/28 13:44:22;;;;;;;5.13;4.70;;;;;;;;;;5103123;27;20028;-76
2023/06/28 13:46:47;;;;;;;6.10;4.57;;;;;;;;;;5100811;28;20023;-73
2023/06/28 13:49:12;;;;;;;4.50;4.10;;;;;;;;;;5101686;28;20023;-72
2023/06/28 13:51:39;;;;;;;5.45;4.78;;;;;;;;;;5100965;28;20430;-74
2023/06/28 13:54:04;;;;;;;5.10;4.60;;;;;;;;;;5098049;28;20092;-73
2023/06/28 13:56:29;;;;;;;5.68;5.18;;;;;;;;;;5090268;28;20377;-76
2023/06/28 13:58:55;;;;;;;4.78;4.35;;;;;;;;;;5096804;28;20023;-76
2023/06/28 14:01:20;;;;;;;5.50;5.00;;;;;;;;;;5087940;28;20447;-73
2023/06/28 14:03:46;;;;;;;6.00;5.40;;;;;;;;;;5087418;28;20024;-76
2023/06/28 14:06:11;;;;;;;4.85;4.40;;;;;;;;;;5087747;28;20120;-75
2023/06/28 14:08:37;;;;;;;5.55;4.97;;;;;;;;;;5088115;28;20386;-74
2023/06/28 14:11:02;;;;;;;5.55;4.20;;;;;;;;;;5084496;28;20461;-73
2023/06/28 14:13:27;;;;;;;4.78;4.38;;;;;;;;;;5104928;27;20034;-73
2023/06/28 14:15:53;;;;;;;4.85;4.35;;;;;;;;;;5087226;28;20081;-76
2023/06/28 14:18:18;;;;;;;5.85;4.13;;;;;;;;;;5088552;28;20065;-73
2023/06/28 14:20:44;;;;;;;4.90;4.05;;;;;;;;;;5089030;28;20360;-74
2023/06/28 14:23:09;;;;;;;4.82;4.25;;;;;;;;;;5096821;28;20411;-74
2023/06/28 14:25:34;;;;;;;5.68;4.07;;;;;;;;;;5092096;28;23985;-77
2023/06/28 14:28:00;;;;;;;5.25;4.40;;;;;;;;;;5092679;28;20487;-74
2023/06/28 14:30:26;;;;;;;4.97;4.57;;;;;;;;;;5102580;28;20416;-76
2023/06/28 14:32:52;;;;;;;5.50;4.82;;;;;;;;;;5101404;28;20028;-76
2023/06/28 14:35:19;;;;;;;5.07;4.57;;;;;;;;;;5092260;28;20076;-74
2023/06/28 14:37:46;;;;;;;5.10;4.55;;;;;;;;;;5089830;28;21116;-77
2023/06/28 14:40:12;;;;;;;6.78;4.63;;;;;;;;;;5088298;28;20029;-76
2023/06/28 14:42:38;;;;;;;4.38;4.07;;;;;;;;;;5089549;27;20020;-75